Time;durP1;ratioP1;P1;durP2;ratioP2;P2;SDS_P1;SDS_P2;PMS_P1;PMS_P2;Temp;Humidity;BMP_temperature;BMP_pressure;BME280_temperature;BME280_humidity;BME280_pressure;Samples;Min_cycle;Max_cycle;Signal;HPM_P1;HPM_P2
2022/08/09 00:02:11;;;;;;;1.00;1.00;;;27.40;42.90;;;31.19;27.58;102474.97;5112235;28;20058;-11
2022/08/09 00:04:37;;;;;;;1.20;1.10;;;27.40;42.90;;;31.21;27.49;102478.44;5112454;28;20096;-11
2022/08/09 00:07:04;;;;;;;1.00;0.90;;;27.30;42.90;;;31.19;27.75;102480.38;5112467;28;20131;-11
2022/08/09 00:09:30;;;;;;;1.40;0.90;;;27.40;42.90;;;31.21;27.86;102479.31;5112583;28;20056;-11
2022/08/09 00:11:56;;;;;;;1.13;1.02;;;27.30;42.90;;;31.20;27.58;102482.13;5116018;28;20059;-11
2022/08/09 00:14:22;;;;;;;1.10;1.00;;;27.40;42.90;;;31.17;27.75;102475.16;5095829;28;20051;-11
2022/08/09 00:16:48;;;;;;;1.25;1.15;;;27.30;42.90;;;31.21;27.81;102482.00;5115331;28;20050;-11
2022/08/09 00:19:14;;;;;;;1.02;1.00;;;27.30;42.90;;;31.17;27.70;102483.25;5115083;28;20043;-11
2022/08/09 00:21:40;;;;;;;1.10;0.95;;;27.30;42.90;;;31.20;27.68;102488.38;5115299;28;20408;-11
2022/08/09 00:24:06;;;;;;;0.88;0.88;;;27.30;42.90;;;31.20;27.67;102493.78;5115231;28;20047;-11
2022/08/09 00:26:32;;;;;;;0.93;0.93;;;27.30;42.90;;;31.19;27.57;102483.97;5096362;28;20051;-11
2022/08/09 00:28:59;;;;;;;1.63;1.30;;;27.30;42.90;;;31.19;27.85;102486.69;5095413;28;20055;-11
2022/08/09 00:31:25;;;;;;;3.00;1.10;;;27.40;42.90;;;31.20;27.59;102485.66;5115306;28;20397;-11
2022/08/09 00:33:53;;;;;;;1.05;1.02;;;27.30;42.90;;;31.17;27.55;102493.16;5115134;28;20043;-11
2022/08/09 00:36:21;;;;;;;0.90;0.90;;;27.30;42.90;;;31.19;27.63;102488.50;5115312;28;20083;-11
2022/08/09 00:38:46;;;;;;;1.00;0.90;;;27.30;43.50;;;31.21;27.59;102494.66;5115170;28;20156;-11
2022/08/09 00:41:12;;;;;;;1.20;1.10;;;27.30;42.90;;;31.15;27.53;102489.75;5115047;28;20468;-11
2022/08/09 00:43:39;;;;;;;1.17;1.08;;;27.30;42.90;;;31.19;27.83;102492.09;5115157;28;20051;-11
2022/08/09 00:46:08;;;;;;;1.08;1.00;;;27.30;43.00;;;31.16;27.60;102497.72;5115090;28;20059;-11
2022/08/09 00:48:35;;;;;;;0.93;0.93;;;27.30;43.00;;;31.18;27.75;102503.84;5114968;28;20047;-11
2022/08/09 00:51:03;;;;;;;1.17;1.00;;;27.30;43.00;;;31.15;27.68;102505.97;5115356;28;20043;-11
2022/08/09 00:53:30;;;;;;;1.42;1.20;;;27.30;43.00;;;31.18;27.56;102492.19;5115339;28;20378;-11
2022/08/09 00:55:56;;;;;;;1.08;0.90;;;27.30;43.50;;;31.16;27.51;102495.03;5115005;28;20048;-11
2022/08/09 00:58:23;;;;;;;1.15;1.08;;;27.30;43.00;;;31.18;27.54;102506.56;5114756;28;20505;-11
2022/08/09 01:00:53;;;;;;;1.00;1.00;;;27.30;43.00;;;31.14;27.53;102497.00;5096720;28;20053;-11
2022/08/09 01:03:42;;;;;;;1.20;1.10;;;27.30;43.00;;;31.17;27.71;102504.88;5080244;28;20385;-11
2022/08/09 01:06:18;;;;;;;1.25;1.15;;;27.30;43.00;;;31.16;27.66;102488.78;5114626;28;20051;-11
2022/08/09 01:09:02;;;;;;;1.17;1.08;;;27.30;43.00;;;31.17;27.84;102495.88;5111197;28;20464;-11
2022/08/09 01:12:30;;;;;;;1.02;1.02;;;27.30;43.00;;;31.18;27.71;102498.47;5114803;28;20442;-11
2022/08/09 01:15:09;;;;;;;0.93;0.93;;;27.30;43.00;;;31.13;27.58;102492.56;5068476;28;20039;-11
2022/08/09 01:17:43;;;;;;;1.08;1.00;;;27.30;43.00;;;31.14;27.58;102488.00;5095198;28;20048;-11
2022/08/09 01:20:21;;;;;;;1.38;1.27;;;27.30;43.00;;;31.12;27.63;102493.53;5095709;28;20036;-11
2022/08/09 01:23:12;;;;;;;0.70;0.70;;;27.30;43.00;;;31.18;27.60;102494.91;5096575;28;20100;-11
2022/08/09 01:25:54;;;;;;;1.05;0.95;;;27.30;43.00;;;31.17;27.58;102499.47;5096266;28;20511;-11
2022/08/09 01:28:22;;;;;;;1.65;1.20;;;27.30;43.00;;;31.14;27.81;102486.19;5094968;28;20455;-11
2022/08/09 01:30:51;;;;;;;1.77;1.10;;;27.30;43.00;;;31.15;27.48;102485.19;5114774;28;20105;-11
2022/08/09 01:33:21;;;;;;;0.90;0.90;;;27.20;43.00;;;31.13;27.76;102483.63;5096077;28;20546;-11
2022/08/09 01:36:06;;;;;;;1.20;1.10;;;27.30;43.00;;;31.15;27.67;102485.19;5096154;28;20461;-11
2022/08/09 01:38:38;;;;;;;1.63;1.38;;;27.20;43.00;;;31.12;27.58;102485.44;5095857;28;20317;-11
2022/08/09 01:41:32;;;;;;;0.93;0.93;;;27.20;43.00;;;31.14;27.61;102498.81;5114474;28;20052;-11
2022/08/09 01:44:01;;;;;;;1.10;1.00;;;27.20;43.00;;;31.09;27.93;102483.00;5114202;28;20047;-11
2022/08/09 01:46:37;;;;;;;1.38;1.20;;;27.20;43.00;;;31.10;27.71;102481.16;5114167;28;20035;-11
2022/08/09 01:49:20;;;;;;;1.75;1.17;;;27.20;43.00;;;31.05;27.64;102481.50;5114000;28;20097;-11
2022/08/09 01:51:50;;;;;;;0.93;0.93;;;27.20;43.00;;;31.12;27.52;102487.28;5095612;28;20393;-11
2022/08/09 01:54:17;;;;;;;1.35;1.10;;;27.20;43.00;;;31.15;27.77;102492.44;5095770;28;20051;-11
2022/08/09 01:56:46;;;;;;;1.30;1.08;;;27.20;43.00;;;31.14;27.69;102488.00;5077958;28;20524;-11
2022/08/09 01:59:17;;;;;;;1.05;0.70;;;27.20;43.00;;;31.08;27.79;102491.22;5094338;28;20047;-11
2022/08/09 02:01:43;;;;;;;;;;;27.20;43.00;;;31.19;27.50;102489.38;5114356;28;20047;-11
2022/08/09 02:04:11;;;;;;;1.33;1.00;;;27.20;43.00;;;31.16;27.46;102495.03;5093765;28;19969;-11
2022/08/09 02:09:26;;;;;;;1.25;1.15;;;27.20;43.00;;;31.10;27.72;102495.50;5098706;28;20043;-11
2022/08/09 02:11:53;;;;;;;0.90;0.90;;;27.20;43.10;;;31.09;27.66;102491.09;5095116;28;20058;-11
2022/08/09 02:14:21;;;;;;;1.25;1.15;;;27.20;43.10;;;31.03;27.66;102487.03;5113531;28;20404;-11
2022/08/09 02:16:48;;;;;;;1.02;0.93;;;27.20;43.10;;;31.06;27.98;102499.44;5093994;28;20052;-11
2022/08/09 02:19:14;;;;;;;0.95;0.90;;;27.20;43.10;;;31.05;27.79;102486.06;5113376;28;20051;-11
2022/08/09 02:21:48;;;;;;;0.90;0.90;;;27.20;43.10;;;31.05;28.01;102497.72;5113302;28;20055;-11
2022/08/09 02:24:18;;;;;;;0.85;0.63;;;27.20;43.10;;;31.05;27.94;102489.63;5095184;28;20054;-11
2022/08/09 02:26:45;;;;;;;1.17;1.03;;;27.20;43.10;;;31.03;27.84;102488.88;5113837;28;20043;-11
2022/08/09 02:29:26;;;;;;;1.00;0.90;;;27.20;43.10;;;31.02;27.59;102496.16;5113342;28;20301;-11
2022/08/09 02:31:58;;;;;;;1.05;0.88;;;27.10;43.10;;;31.03;27.73;102500.53;5093562;28;20040;-10
2022/08/09 02:34:32;;;;;;;1.10;1.00;;;27.20;43.10;;;31.03;27.79;102500.53;5094036;28;20058;-11
2022/08/09 02:37:02;;;;;;;1.10;1.00;;;27.20;43.10;;;31.03;27.85;102497.00;5094335;28;20052;-11
2022/08/09 02:39:39;;;;;;;0.87;0.87;;;27.10;43.10;;;31.02;27.65;102504.25;5113041;28;20053;-11
2022/08/09 02:42:11;;;;;;;0.85;0.85;;;27.20;43.20;;;31.00;27.73;102498.09;5093110;28;20080;-11
2022/08/09 02:44:43;;;;;;;1.70;0.98;;;27.10;43.10;;;30.99;27.85;102493.69;5113335;28;20051;-11
2022/08/09 02:47:14;;;;;;;0.85;0.85;;;27.10;43.10;;;31.05;27.70;102499.56;5095279;28;20389;-11
2022/08/09 02:50:06;;;;;;;1.20;1.10;;;27.10;43.10;;;31.03;27.68;102497.00;5094868;28;20063;-11
2022/08/09 02:53:00;;;;;;;1.05;0.95;;;27.10;43.10;;;31.01;28.15;102496.25;5095289;28;20060;-11
2022/08/09 02:55:27;;;;;;;1.15;0.90;;;27.10;43.10;;;31.02;27.85;102493.44;5093533;28;20131;-11
2022/08/09 02:57:55;;;;;;;1.10;1.00;;;27.10;43.10;;;30.98;27.54;102485.69;5092900;28;20040;-11
2022/08/09 03:00:23;;;;;;;1.10;0.80;;;27.10;43.10;;;30.95;27.82;102485.94;5094636;28;20065;-11
2022/08/09 03:02:53;;;;;;;0.95;0.90;;;27.10;43.10;;;30.97;28.07;102495.66;5094807;28;20504;-11
2022/08/09 03:05:20;;;;;;;1.10;0.98;;;27.10;43.10;;;30.98;28.12;102491.94;5094370;28;20090;-11
2022/08/09 03:07:48;;;;;;;0.80;0.80;;;27.10;43.20;;;30.98;27.93;102491.94;5094677;28;20092;-11
2022/08/09 03:10:15;;;;;;;1.00;0.90;;;27.10;43.20;;;30.95;27.75;102481.38;5094645;28;20085;-11
2022/08/09 03:12:43;;;;;;;1.02;0.93;;;27.10;43.20;;;30.98;27.94;102493.81;5094640;28;20401;-11
2022/08/09 03:15:11;;;;;;;1.00;0.88;;;27.10;43.20;;;30.98;27.89;102494.66;5112857;28;20127;-11
2022/08/09 03:17:38;;;;;;;1.00;0.88;;;27.10;43.20;;;30.97;28.04;102490.25;5112790;28;20048;-11
2022/08/09 03:20:06;;;;;;;1.85;0.98;;;27.00;43.10;;;30.94;28.01;102487.78;5094472;28;20051;-11
2022/08/09 03:22:39;;;;;;;1.27;1.17;;;27.10;43.20;;;30.95;27.90;102494.03;5094482;28;20048;-11
2022/08/09 03:25:07;;;;;;;0.80;0.80;;;27.00;43.10;;;30.95;27.93;102494.91;5094872;28;20081;-11
2022/08/09 03:27:34;;;;;;;1.23;0.90;;;27.10;43.20;;;30.96;27.73;102501.19;5093239;28;20052;-11
2022/08/09 03:30:00;;;;;;;0.82;0.80;;;27.10;43.20;;;30.96;27.79;102502.03;5093269;28;20054;-11
2022/08/09 03:32:29;;;;;;;1.10;1.00;;;27.00;43.10;;;30.96;27.87;102503.88;5092413;28;20492;-11
2022/08/09 03:34:55;;;;;;;0.88;0.88;;;27.00;43.10;;;30.97;27.80;102502.88;5094695;28;20059;-11
2022/08/09 03:37:21;;;;;;;1.05;0.90;;;27.00;43.10;;;30.98;27.86;102499.22;5093993;28;20051;-11
2022/08/09 03:39:48;;;;;;;0.80;0.80;;;27.10;43.20;;;30.97;27.83;102503.75;5112402;28;20048;-11
2022/08/09 03:42:14;;;;;;;0.80;0.80;;;27.00;43.10;;;30.97;28.02;102505.56;5112681;28;20393;-11
2022/08/09 03:44:41;;;;;;;1.20;0.90;;;27.10;43.20;;;30.91;27.72;102504.19;5113702;28;20079;-11
2022/08/09 03:47:08;;;;;;;1.10;1.00;;;27.00;43.10;;;30.93;28.05;102501.38;5115925;28;20078;-11
2022/08/09 03:49:35;;;;;;;1.20;1.10;;;27.00;43.10;;;30.93;27.92;102504.94;5097687;28;20138;-11
2022/08/09 03:52:02;;;;;;;1.27;1.17;;;27.10;43.20;;;30.95;27.96;102507.53;5095914;28;20048;-11
2022/08/09 03:54:36;;;;;;;1.20;1.10;;;27.00;43.10;;;30.92;27.81;102507.75;5115810;28;20048;-11
2022/08/09 03:57:06;;;;;;;1.10;0.90;;;27.10;43.20;;;30.92;27.96;102500.50;5115749;28;20140;-12
2022/08/09 03:59:32;;;;;;;0.82;0.73;;;27.00;43.10;;;30.97;27.87;102513.69;5097477;28;20056;-11
2022/08/09 04:01:59;;;;;;;0.80;0.80;;;27.00;43.10;;;30.94;27.87;102505.78;5096754;28;20083;-11
2022/08/09 04:04:27;;;;;;;0.80;0.80;;;27.10;43.10;;;30.98;27.81;102510.00;5096576;28;20052;-11
2022/08/09 04:06:53;;;;;;;0.88;0.88;;;27.10;43.10;;;31.00;27.94;102502.63;5115528;28;20105;-11
2022/08/09 04:09:19;;;;;;;1.13;1.02;;;27.10;43.10;;;31.03;27.83;102510.50;5115534;28;20051;-11
2022/08/09 04:12:13;;;;;;;0.70;0.70;;;27.10;43.10;;;31.03;27.85;102513.19;5115423;28;20440;-11
2022/08/09 04:14:40;;;;;;;0.93;0.88;;;27.10;43.00;;;31.06;27.83;102512.97;5115926;28;20498;-11
2022/08/09 04:17:07;;;;;;;1.05;0.95;;;27.10;43.00;;;31.07;27.52;102508.41;5115313;28;20077;-11
2022/08/09 04:19:34;;;;;;;1.02;0.98;;;27.10;43.00;;;31.07;28.02;102514.66;5115398;28;20048;-11
2022/08/09 04:22:00;;;;;;;1.00;0.90;;;27.20;43.00;;;31.11;27.74;102515.31;5115359;28;20492;-11
2022/08/09 04:24:26;;;;;;;0.85;0.85;;;27.20;42.90;;;31.12;27.43;102512.44;5115617;28;20184;-11
2022/08/09 04:26:53;;;;;;;0.90;0.90;;;27.20;42.80;;;31.17;27.86;102512.97;5115578;28;20047;-11
2022/08/09 04:29:19;;;;;;;1.00;0.90;;;27.30;42.90;;;31.21;27.73;102511.72;5115103;28;20043;-11
2022/08/09 04:31:44;;;;;;;0.85;0.82;;;27.30;42.80;;;31.25;27.62;102500.69;5115463;28;20055;-11
2022/08/09 04:34:10;;;;;;;0.90;0.90;;;27.40;42.70;;;31.29;27.44;102508.41;5097344;28;20070;-9
2022/08/09 04:36:36;;;;;;;1.02;0.82;;;27.40;42.70;;;31.35;27.38;102512.44;5115198;28;20051;-9
2022/08/09 04:39:07;;;;;;;1.77;1.10;;;27.40;42.50;;;31.40;27.51;102518.34;5115037;28;20047;-9
2022/08/09 04:41:33;;;;;;;1.05;1.00;;;27.50;42.50;;;31.47;27.34;102521.41;5115204;28;20043;-9
2022/08/09 04:44:02;;;;;;;0.85;0.85;;;27.60;42.50;;;31.49;27.05;102522.13;5115067;28;20047;-9
2022/08/09 04:46:28;;;;;;;0.85;0.85;;;27.60;42.40;;;31.53;27.00;102526.34;5080415;28;20039;-9
2022/08/09 04:48:54;;;;;;;0.75;0.75;;;27.60;42.30;;;31.56;27.00;102526.09;5096647;28;20097;-9
2022/08/09 04:51:20;;;;;;;1.17;1.05;;;27.70;42.40;;;31.59;27.30;102531.22;5114861;28;20066;-9
2022/08/09 04:53:45;;;;;;;0.80;0.80;;;27.70;42.30;;;31.61;26.95;102529.28;5096610;28;20134;-9
2022/08/09 04:56:11;;;;;;;0.70;0.70;;;27.70;42.20;;;31.67;27.09;102533.31;5115072;28;20412;-9
2022/08/09 04:58:37;;;;;;;0.70;0.70;;;27.70;42.10;;;31.68;26.81;102526.94;5114838;28;20051;-9
2022/08/09 05:01:03;;;;;;;1.08;0.98;;;27.80;42.20;;;31.72;26.78;102528.38;5114679;28;20044;-9
2022/08/09 05:03:29;;;;;;;0.80;0.80;;;27.80;42.10;;;31.74;27.21;102535.41;5114712;28;20079;-9
2022/08/09 05:05:55;;;;;;;1.08;0.80;;;27.90;42.10;;;31.79;26.99;102536.84;5114719;28;20070;-9
2022/08/09 05:08:21;;;;;;;1.23;1.00;;;27.90;42.00;;;31.82;26.64;102534.75;5114602;28;20115;-9
2022/08/09 05:10:47;;;;;;;1.20;1.10;;;27.90;42.00;;;31.84;26.69;102530.06;5114796;28;20512;-10
2022/08/09 05:13:13;;;;;;;0.90;0.90;;;28.00;41.90;;;31.90;26.93;102539.53;5114611;28;20051;-10
2022/08/09 05:15:38;;;;;;;0.80;0.80;;;28.00;41.90;;;31.89;26.94;102538.69;5114562;28;20051;-9
2022/08/09 05:18:05;;;;;;;1.35;0.93;;;28.10;41.90;;;31.96;27.00;102539.03;5114582;28;20508;-9
2022/08/09 05:20:31;;;;;;;1.63;0.90;;;28.10;41.80;;;31.99;26.64;102541.47;5114731;28;20047;-10
2022/08/09 05:22:58;;;;;;;0.80;0.80;;;28.10;41.80;;;32.04;26.79;102547.34;5114457;28;20043;-10
2022/08/09 05:25:24;;;;;;;1.45;1.13;;;28.20;41.70;;;32.05;26.36;102553.63;5114491;28;20040;-9
2022/08/09 05:27:49;;;;;;;1.05;0.90;;;28.20;41.70;;;32.10;26.90;102560.41;5114291;28;20096;-10
2022/08/09 05:30:17;;;;;;;1.00;0.90;;;28.20;41.60;;;32.15;26.31;102546.50;5114341;28;20055;-9
2022/08/09 05:32:45;;;;;;;1.33;0.90;;;28.30;41.60;;;32.19;26.45;102568.75;5114601;28;20050;-9
2022/08/09 05:35:11;;;;;;;1.10;1.00;;;28.30;41.50;;;32.23;26.66;102560.22;5096531;28;20043;-9
2022/08/09 05:37:38;;;;;;;0.80;0.80;;;28.40;41.50;;;32.27;26.31;102564.38;5114036;28;20054;-10
2022/08/09 05:40:05;;;;;;;0.93;0.90;;;28.40;41.40;;;32.28;26.59;102559.84;5114396;28;20458;-9
2022/08/09 05:42:32;;;;;;;1.27;0.95;;;28.50;41.40;;;32.35;26.39;102566.47;5114124;28;20493;-9
2022/08/09 05:44:58;;;;;;;0.82;0.82;;;28.50;41.50;;;32.40;26.09;102561.50;5114075;28;20043;-10
2022/08/09 05:47:25;;;;;;;0.90;0.80;;;28.50;41.20;;;32.43;26.43;102569.38;5094096;28;20397;-10
2022/08/09 05:49:52;;;;;;;1.20;0.90;;;28.50;41.10;;;32.47;26.00;102567.25;5078898;28;20061;-10
2022/08/09 05:52:19;;;;;;;1.25;0.90;;;28.60;41.20;;;32.52;25.95;102570.44;5114218;28;20044;-9
2022/08/09 05:54:45;;;;;;;0.70;0.70;;;28.70;41.10;;;32.55;25.95;102570.16;5114031;28;20059;-10
2022/08/09 05:57:11;;;;;;;2.03;0.80;;;28.70;41.00;;;32.61;26.35;102574.19;5113810;28;20556;-10
2022/08/09 05:59:37;;;;;;;1.33;1.10;;;28.80;41.00;;;32.63;25.94;102573.13;5114411;28;20051;-10
2022/08/09 06:02:03;;;;;;;0.85;0.85;;;28.80;40.90;;;32.67;25.78;102571.00;5114097;28;20056;-9
2022/08/09 06:04:29;;;;;;;0.88;0.88;;;28.90;40.90;;;32.74;25.63;102568.63;5113656;28;20044;-9
2022/08/09 06:06:55;;;;;;;0.80;0.80;;;28.90;40.90;;;32.74;26.11;102574.88;5112624;28;20055;-10
2022/08/09 06:09:20;;;;;;;1.02;0.90;;;29.00;40.80;;;32.81;25.52;102583.34;5095044;28;20055;-10
2022/08/09 06:11:46;;;;;;;1.20;1.10;;;29.00;40.80;;;32.84;25.77;102585.78;5113528;28;20048;-10
2022/08/09 06:14:12;;;;;;;2.30;0.75;;;29.00;40.70;;;32.85;25.92;102584.81;5113936;28;20044;-10
2022/08/09 06:16:38;;;;;;;1.33;1.00;;;29.00;40.60;;;32.89;25.49;102583.53;5113453;28;20047;-10
2022/08/09 06:19:04;;;;;;;1.17;1.08;;;29.10;40.60;;;32.94;25.96;102588.56;5113406;28;20095;-9
2022/08/09 06:21:30;;;;;;;0.80;0.80;;;29.10;40.60;;;32.95;25.57;102580.31;5113529;28;20100;-9
2022/08/09 06:23:56;;;;;;;0.80;0.80;;;29.20;40.60;;;33.00;25.49;102586.19;5095644;28;20051;-10
2022/08/09 06:26:23;;;;;;;1.00;0.90;;;29.20;40.50;;;33.06;25.72;102590.19;5113754;28;20126;-9
2022/08/09 06:28:51;;;;;;;1.48;1.13;;;29.20;40.40;;;33.08;25.64;102587.34;5113518;28;20104;-9
2022/08/09 06:31:16;;;;;;;0.80;0.80;;;29.30;40.50;;;33.10;25.58;102582.69;5113450;28;20052;-9
2022/08/09 06:33:43;;;;;;;0.82;0.82;;;29.30;40.40;;;33.15;25.63;102589.44;5113361;28;20135;-10
2022/08/09 06:36:09;;;;;;;1.10;1.00;;;29.30;40.30;;;33.15;25.17;102592.13;5113556;28;20043;-9
2022/08/09 06:38:35;;;;;;;0.90;0.90;;;29.30;40.30;;;33.23;25.58;102594.19;5113099;28;20488;-10
2022/08/09 06:41:01;;;;;;;0.70;0.70;;;29.40;40.30;;;33.23;25.45;102592.31;5113439;28;20124;-9
2022/08/09 06:43:27;;;;;;;0.82;0.82;;;29.40;40.30;;;33.27;25.33;102592.06;5113227;28;20051;-9
2022/08/09 06:45:53;;;;;;;0.82;0.82;;;29.40;40.20;;;33.30;25.52;102597.22;5113168;28;20492;-10
2022/08/09 06:48:19;;;;;;;0.73;0.73;;;29.50;40.20;;;33.33;25.43;102596.91;5094915;28;20562;-10
2022/08/09 06:50:45;;;;;;;1.00;0.85;;;29.50;40.10;;;33.38;25.09;102608.22;5113119;28;20105;-9
2022/08/09 06:53:12;;;;;;;0.80;0.80;;;29.50;40.10;;;33.41;25.09;102610.66;5113492;28;20405;-9
2022/08/09 06:55:38;;;;;;;0.73;0.73;;;29.50;40.00;;;33.41;25.17;102597.97;5113272;28;20489;-9
2022/08/09 06:58:04;;;;;;;1.13;1.02;;;29.60;40.00;;;33.40;25.35;102598.97;5112919;28;20067;-10
2022/08/09 07:00:34;;;;;;;0.80;0.80;;;29.60;40.00;;;33.47;25.03;102603.84;5112969;28;20093;-10
2022/08/09 07:03:00;;;;;;;1.20;0.90;;;29.60;39.90;;;33.54;24.99;102615.84;5113022;28;20062;-9
2022/08/09 07:05:26;;;;;;;1.02;0.95;;;29.70;39.90;;;33.55;24.97;102610.28;5112749;28;20131;-10
2022/08/09 07:07:53;;;;;;;0.80;0.70;;;29.70;39.80;;;33.53;24.82;102598.72;5112884;28;20058;-10
2022/08/09 07:10:21;;;;;;;0.80;0.80;;;29.80;39.80;;;33.59;24.79;102610.88;5113210;28;20101;-10
2022/08/09 07:12:48;;;;;;;1.02;0.80;;;29.80;39.70;;;33.62;24.92;102604.31;5112850;28;20040;-10
2022/08/09 07:15:14;;;;;;;0.80;0.80;;;29.80;39.70;;;33.63;24.78;102606.91;5112869;28;20058;-9
2022/08/09 07:17:40;;;;;;;1.35;0.80;;;29.80;39.60;;;33.68;25.03;102611.88;5112833;28;20047;-9
2022/08/09 07:20:06;;;;;;;0.90;0.90;;;29.90;39.70;;;33.69;24.96;102614.50;5116187;28;20373;-9
2022/08/09 07:22:32;;;;;;;1.02;0.85;;;29.90;39.70;;;33.68;24.75;102607.38;5116365;28;20140;-10
2022/08/09 07:24:58;;;;;;;0.80;0.80;;;29.90;39.70;;;33.74;24.86;102622.22;5096750;28;20087;-9
2022/08/09 07:27:26;;;;;;;0.70;0.70;;;29.90;39.60;;;33.71;24.73;102615.22;5098003;28;20044;-10
2022/08/09 07:29:55;;;;;;;1.25;0.82;;;29.90;39.60;;;33.73;24.81;102615.97;5116143;28;20390;-9
2022/08/09 07:32:21;;;;;;;0.80;0.80;;;29.90;39.60;;;33.77;24.69;102619.25;5116243;28;20417;-10
2022/08/09 07:34:47;;;;;;;0.85;0.85;;;29.90;39.60;;;33.75;24.78;102621.25;5116176;28;20048;-9
2022/08/09 07:37:13;;;;;;;0.80;0.80;;;29.90;39.60;;;33.76;24.67;102615.69;5116168;28;20111;-9
2022/08/09 07:39:39;;;;;;;0.80;0.80;;;29.90;39.60;;;33.79;24.80;102614.53;5116036;28;20051;-9
2022/08/09 07:42:05;;;;;;;2.13;0.75;;;29.90;39.60;;;33.81;24.55;102622.53;5115936;28;20097;-9
2022/08/09 07:44:31;;;;;;;1.05;0.98;;;29.90;39.60;;;33.80;24.69;102608.13;5115890;28;20051;-10
2022/08/09 07:46:57;;;;;;;1.27;0.90;;;29.90;39.60;;;33.82;24.67;102616.13;5116082;28;20048;-10
2022/08/09 07:49:23;;;;;;;0.80;0.80;;;29.90;39.60;;;33.81;24.62;102612.53;5115907;28;20044;-10
2022/08/09 07:51:49;;;;;;;1.25;0.90;;;29.90;39.60;;;33.81;24.78;102617.97;5115680;28;20130;-9
2022/08/09 07:54:15;;;;;;;1.08;0.98;;;29.90;39.60;;;33.84;24.81;102624.97;5116135;28;20104;-9
2022/08/09 07:56:41;;;;;;;0.88;0.82;;;29.90;39.60;;;33.82;24.71;102618.84;5115784;28;20047;-10
2022/08/09 07:59:07;;;;;;;0.80;0.80;;;29.90;39.60;;;33.84;24.57;102627.69;5115695;28;20044;-10
2022/08/09 08:01:34;;;;;;;1.40;1.05;;;29.90;39.60;;;33.85;24.72;102629.38;5115673;28;20040;-10
2022/08/09 08:04:01;;;;;;;1.20;1.10;;;30.00;39.60;;;33.86;24.62;102631.97;5115780;28;20039;-10
2022/08/09 08:06:27;;;;;;;0.93;0.82;;;30.00;39.60;;;33.84;24.35;102633.97;5097357;28;20054;-10
2022/08/09 08:08:52;;;;;;;1.33;1.10;;;30.00;39.60;;;33.82;24.80;102630.53;5115584;28;20552;-9
2022/08/09 08:11:18;;;;;;;0.95;0.90;;;29.90;39.60;;;33.85;24.59;102634.81;5115877;28;20051;-9
2022/08/09 08:13:44;;;;;;;1.40;1.30;;;30.00;39.70;;;33.84;24.68;102633.97;5115538;28;20055;-10
2022/08/09 08:16:10;;;;;;;1.60;1.17;;;29.90;39.60;;;33.81;24.50;102619.81;5115524;28;20048;-9
2022/08/09 08:18:36;;;;;;;1.45;1.08;;;29.90;39.60;;;33.78;24.50;102619.09;5115487;28;20134;-10
2022/08/09 08:21:02;;;;;;;3.28;1.10;;;29.90;39.70;;;33.80;24.58;102624.41;5115235;28;20056;-10
2022/08/09 08:23:28;;;;;;;1.00;1.00;;;29.90;39.70;;;33.84;24.85;102630.41;5115420;28;20501;-9
2022/08/09 08:25:54;;;;;;;1.17;1.08;;;29.90;39.80;;;33.83;24.88;102634.09;5097013;28;20082;-10
2022/08/09 08:28:20;;;;;;;1.40;1.00;;;29.90;40.00;;;33.78;24.64;102626.38;5115282;28;20047;-10
2022/08/09 08:30:46;;;;;;;1.35;1.08;;;29.80;40.00;;;33.79;24.75;102625.38;5114460;28;20043;-9
2022/08/09 08:33:12;;;;;;;1.13;1.02;;;29.80;40.10;;;33.76;24.90;102626.53;5115140;28;20096;-9
2022/08/09 08:35:38;;;;;;;4.03;1.15;;;29.80;40.10;;;33.76;24.57;102628.38;5080804;28;20485;-10
2022/08/09 08:38:04;;;;;;;1.70;1.60;;;29.70;40.10;;;33.72;24.85;102627.78;5096869;28;20097;-9
2022/08/09 08:40:32;;;;;;;1.63;1.00;;;29.70;40.10;;;33.72;24.96;102630.50;5114981;28;20457;-10
2022/08/09 08:42:58;;;;;;;2.20;1.20;;;29.70;40.10;;;33.70;24.57;102632.50;5114979;28;20550;-9
2022/08/09 08:45:44;;;;;;;1.67;1.30;;;29.60;40.10;;;33.63;25.13;102625.00;5115264;28;20052;-9
2022/08/09 08:48:10;;;;;;;2.08;1.20;;;29.60;40.20;;;33.65;25.06;102636.56;5115146;28;20051;-9
2022/08/09 08:50:36;;;;;;;1.48;1.23;;;29.60;40.30;;;33.58;24.99;102623.59;5096650;28;20051;-9
2022/08/09 08:53:02;;;;;;;1.92;1.10;;;29.50;40.40;;;33.54;24.99;102632.13;5114883;28;20477;-9
2022/08/09 08:55:29;;;;;;;1.52;1.38;;;29.40;40.50;;;33.53;25.16;102639.41;5096490;28;20055;-10
2022/08/09 08:57:54;;;;;;;1.85;1.30;;;29.40;40.50;;;33.53;24.92;102635.81;5114790;28;20043;-10
2022/08/09 09:00:20;;;;;;;1.30;1.13;;;29.40;40.50;;;33.50;24.87;102628.84;5114299;28;20048;-9
2022/08/09 09:02:50;;;;;;;1.48;1.20;;;29.40;40.50;;;33.47;25.28;102633.66;5096426;28;20105;-9
2022/08/09 09:05:23;;;;;;;1.50;1.20;;;29.40;40.80;;;33.44;25.10;102640.22;5114617;28;20102;-10
2022/08/09 09:07:49;;;;;;;2.22;1.00;;;29.40;40.80;;;33.40;25.35;102628.78;5114623;28;20126;-9
2022/08/09 09:10:16;;;;;;;2.55;1.30;;;29.40;40.70;;;33.40;25.15;102631.50;5078543;28;20070;-9
2022/08/09 09:12:45;;;;;;;1.58;1.20;;;29.40;40.70;;;33.34;25.08;102626.59;5114669;28;20047;-9
2022/08/09 09:15:11;;;;;;;1.42;1.20;;;29.30;40.70;;;33.37;25.33;102625.50;5114442;28;20051;-10
2022/08/09 09:17:37;;;;;;;2.03;1.25;;;29.30;40.70;;;33.34;25.27;102626.59;5114520;28;20035;-9
2022/08/09 09:20:10;;;;;;;2.05;1.33;;;29.20;40.80;;;33.29;25.49;102618.03;5114501;28;20462;-10
2022/08/09 09:22:54;;;;;;;2.15;1.40;;;29.20;40.80;;;33.29;25.54;102628.00;5114526;28;20501;-9
2022/08/09 09:25:36;;;;;;;1.25;1.15;;;29.20;40.90;;;33.27;25.28;102630.84;5114644;28;20067;-9
2022/08/09 09:28:05;;;;;;;2.75;1.27;;;29.20;41.00;;;33.24;25.66;102626.56;5114389;28;20048;-10
2022/08/09 09:30:31;;;;;;;2.35;1.50;;;29.20;40.90;;;33.22;25.50;102624.97;5114155;28;20498;-10
2022/08/09 09:33:06;;;;;;;2.80;1.38;;;29.20;41.00;;;33.21;25.59;102631.38;5114288;28;20063;-9
2022/08/09 09:35:33;;;;;;;1.77;1.42;;;29.20;41.00;;;33.21;25.79;102636.81;5114636;28;20048;-9
2022/08/09 09:37:59;;;;;;;1.35;1.10;;;29.10;41.00;;;33.19;25.67;102636.09;5113899;28;20142;-10
2022/08/09 09:40:43;;;;;;;1.92;1.50;;;29.10;41.00;;;33.12;25.85;102626.75;5095743;28;20054;-9
2022/08/09 09:43:09;;;;;;;1.45;1.20;;;29.10;41.00;;;33.18;25.77;102632.53;5112845;28;20067;-10
2022/08/09 09:45:51;;;;;;;1.38;1.20;;;29.10;41.00;;;33.13;25.67;102632.03;5113899;28;20047;-9
2022/08/09 09:48:20;;;;;;;1.90;1.20;;;29.10;41.00;;;33.15;25.83;102632.78;5114089;28;20052;-10
2022/08/09 09:50:49;;;;;;;1.95;1.15;;;29.10;41.10;;;33.13;25.87;102642.88;5113993;28;20047;-9
2022/08/09 09:53:33;;;;;;;2.20;1.10;;;29.10;41.20;;;33.09;25.39;102633.28;5114271;28;20435;-10
2022/08/09 09:56:01;;;;;;;2.17;1.20;;;29.10;41.20;;;33.11;25.93;102644.00;5114095;28;20043;-9
2022/08/09 09:58:47;;;;;;;2.85;1.25;;;29.00;41.10;;;33.07;25.84;102643.41;5113570;28;20052;-9
2022/08/09 10:01:21;;;;;;;1.20;1.10;;;29.00;41.20;;;33.03;25.49;102631.97;5113776;28;20039;-9
2022/08/09 10:03:52;;;;;;;3.13;1.70;;;29.00;41.20;;;33.05;25.86;102638.13;5113953;28;20040;-9
2022/08/09 10:06:18;;;;;;;2.15;1.45;;;29.00;41.20;;;33.06;25.82;102636.25;5113803;28;20043;-10
2022/08/09 10:08:48;;;;;;;2.72;1.17;;;29.00;41.20;;;33.00;25.81;102624.13;5095414;28;20052;-10
2022/08/09 10:11:22;;;;;;;3.15;1.35;;;29.00;41.20;;;33.03;25.60;102637.41;5114040;28;20103;-9
2022/08/09 10:13:49;;;;;;;1.33;1.17;;;29.00;41.30;;;33.03;25.94;102631.13;5113699;28;20063;-10
2022/08/09 10:16:15;;;;;;;1.77;1.38;;;29.00;41.30;;;32.98;25.71;102626.09;5113925;28;20469;-11
2022/08/09 10:18:53;;;;;;;1.42;1.17;;;29.00;41.20;;;33.01;25.92;102631.25;5094463;28;20079;-10
2022/08/09 10:21:19;;;;;;;2.47;1.58;;;28.90;41.30;;;33.01;25.48;102627.69;5113619;28;20447;-9
2022/08/09 10:23:46;;;;;;;2.78;1.40;;;28.90;41.20;;;33.00;26.04;102626.81;5114047;28;20047;-9
2022/08/09 10:26:13;;;;;;;2.75;1.30;;;28.90;41.20;;;32.96;25.66;102619.97;5113404;28;20043;-10